KDMW

Carroll County Regional / Jack B Poage Field Airport

Westminster, Maryland, USA
METAR KDMW 250455Z AUTO 19003KT 10SM CLR 19/11 A3014 RMK AO2
Observed Flight Rules
May-25 @ 04:55 UTC (32 minutes ago) Visual Flight Rules
Wind Visibility Clouds
190° at 3 knots 10 miles
  • Clear skies
Temperatures Readings
Current 19°C / 66°F
Dewpoint 11°C / 52°F
Humidity 60%
Altimeter 30.14" Hg
Pressure 1021 hPa
Elevation 241
METAR KDMW 250455Z AUTO 19003KT 10SM CLR 19/11 A3014 RMK AO2
Observed Flight Rules
May-25 @ 04:55 UTC
(32 minutes ago)
VFR
Wind Visibility
190° at 3 knots 10 miles
Clouds
  • Clear skies
Temperature Dewpoint
19°C / 66°F 11°C / 52°F
Humidity Altimeter Pressure
60% 30.14" Hg 1021 hPa